createdAt,value
2023-07-18T00:00:15.841Z,6.32
2023-07-18T00:02:43.533Z,5.95
2023-07-18T00:05:14.347Z,5.68
2023-07-18T00:07:41.819Z,6.70
2023-07-18T00:10:10.163Z,7.85
2023-07-18T00:12:37.745Z,8.77
2023-07-18T00:15:08.324Z,4.18
2023-07-18T00:17:35.247Z,6.63
2023-07-18T00:20:03.040Z,5.72
2023-07-18T00:22:29.530Z,4.25
2023-07-18T00:24:56.035Z,4.00
2023-07-18T00:27:22.559Z,5.45
2023-07-18T00:29:48.947Z,5.82
2023-07-18T00:32:15.484Z,4.07
2023-07-18T00:34:42.259Z,6.28
2023-07-18T00:37:08.870Z,4.13
2023-07-18T00:39:35.299Z,6.10
2023-07-18T00:42:01.816Z,4.53
2023-07-18T00:44:28.403Z,3.65
2023-07-18T00:46:55.298Z,4.05
2023-07-18T00:49:23.052Z,7.13
2023-07-18T00:51:49.674Z,6.38
2023-07-18T00:54:16.537Z,3.38
2023-07-18T00:56:43.146Z,5.13
2023-07-18T00:59:11.662Z,3.65
2023-07-18T01:01:38.320Z,3.53
2023-07-18T01:04:05.027Z,6.00
2023-07-18T01:06:31.488Z,5.90
2023-07-18T01:08:57.960Z,8.15
2023-07-18T01:11:24.454Z,3.28
2023-07-18T01:13:50.906Z,3.70
2023-07-18T01:16:17.623Z,5.47
2023-07-18T01:18:44.184Z,3.00
2023-07-18T01:21:18.641Z,5.35
2023-07-18T01:23:46.569Z,5.38
2023-07-18T01:26:14.062Z,6.40
2023-07-18T01:28:40.692Z,3.55
2023-07-18T01:31:07.234Z,4.90
2023-07-18T01:33:34.405Z,7.18
2023-07-18T01:36:01.358Z,4.32
2023-07-18T01:38:31.291Z,4.82
2023-07-18T01:41:00.704Z,3.50
2023-07-18T01:43:27.282Z,5.00
2023-07-18T01:45:59.356Z,5.03
2023-07-18T01:48:26.128Z,6.25
2023-07-18T01:50:52.721Z,3.88
2023-07-18T01:53:19.218Z,6.10
2023-07-18T01:55:45.620Z,4.15
2023-07-18T01:58:12.085Z,6.00
2023-07-18T02:00:38.543Z,3.08
2023-07-18T02:03:06.936Z,3.60
2023-07-18T02:05:33.926Z,4.38
2023-07-18T02:08:00.440Z,7.72
2023-07-18T02:10:27.998Z,3.03
2023-07-18T02:12:58.653Z,4.00
2023-07-18T02:15:25.200Z,6.50
2023-07-18T02:17:52.646Z,5.22
2023-07-18T02:20:19.657Z,5.32
2023-07-18T02:22:47.987Z,2.88
2023-07-18T02:25:18.471Z,5.05
2023-07-18T02:27:45.744Z,4.93
2023-07-18T02:30:13.425Z,3.72
2023-07-18T02:32:41.259Z,6.43
2023-07-18T02:35:09.342Z,5.88
2023-07-18T02:37:35.943Z,5.18
2023-07-18T02:40:09.253Z,6.15
2023-07-18T02:42:36.343Z,3.53
2023-07-18T02:45:03.159Z,4.28
2023-07-18T02:47:29.685Z,4.80
2023-07-18T02:49:56.217Z,4.93
2023-07-18T02:52:22.826Z,6.38
2023-07-18T02:54:51.452Z,3.88
2023-07-18T02:57:18.582Z,7.70
2023-07-18T02:59:45.477Z,4.15
2023-07-18T03:02:12.869Z,9.98
2023-07-18T03:04:40.220Z,4.15
2023-07-18T03:07:06.921Z,4.47
2023-07-18T03:09:35.873Z,3.55
2023-07-18T03:12:02.635Z,5.82
2023-07-18T03:14:30.353Z,4.80
2023-07-18T03:16:57.070Z,7.93
2023-07-18T03:19:24.013Z,3.25
2023-07-18T03:21:50.851Z,2.40
2023-07-18T03:24:17.649Z,4.07
2023-07-18T03:26:45.348Z,3.53
2023-07-18T03:29:11.748Z,4.13
2023-07-18T03:31:40.824Z,4.72
2023-07-18T03:34:07.778Z,6.30
2023-07-18T03:36:35.693Z,5.13
2023-07-18T03:39:03.679Z,5.57
2023-07-18T03:41:30.133Z,4.40
2023-07-18T03:43:57.799Z,3.08
2023-07-18T03:46:24.269Z,7.75
2023-07-18T03:48:52.733Z,3.38
2023-07-18T03:51:20.022Z,3.85
2023-07-18T03:53:48.188Z,3.45
2023-07-18T03:56:16.346Z,4.78
2023-07-18T03:58:43.926Z,3.53
2023-07-18T04:01:11.535Z,4.80
2023-07-18T04:03:38.830Z,4.78
2023-07-18T04:06:05.600Z,4.43
2023-07-18T04:08:32.012Z,8.90
2023-07-18T04:11:01.343Z,5.75
2023-07-18T04:13:27.986Z,4.60
2023-07-18T04:15:55.736Z,4.82
2023-07-18T04:18:23.035Z,5.90
2023-07-18T04:20:50.505Z,5.55
2023-07-18T04:23:17.932Z,8.05
2023-07-18T04:25:58.767Z,4.70
2023-07-18T04:28:26.744Z,4.93
2023-07-18T04:30:53.179Z,6.43
2023-07-18T04:33:19.646Z,5.78
2023-07-18T04:35:46.947Z,4.35
2023-07-18T04:38:14.942Z,3.70
2023-07-18T04:40:42.397Z,3.83
2023-07-18T04:43:09.645Z,8.13
2023-07-18T04:45:46.640Z,6.70
2023-07-18T04:48:14.798Z,4.93
2023-07-18T04:50:45.911Z,6.82
2023-07-18T04:53:13.093Z,4.88
2023-07-18T04:55:40.068Z,5.07
2023-07-18T04:58:09.078Z,5.75
2023-07-18T05:00:36.162Z,4.68
2023-07-18T05:03:02.734Z,5.53
2023-07-18T05:05:30.599Z,5.43
2023-07-18T05:07:59.567Z,5.88
2023-07-18T05:10:26.665Z,6.68
2023-07-18T05:12:54.418Z,7.20
2023-07-18T05:15:21.339Z,5.50
2023-07-18T05:17:48.591Z,5.40
2023-07-18T05:20:16.048Z,5.28
2023-07-18T05:22:45.001Z,7.68
2023-07-18T05:25:13.958Z,4.82
2023-07-18T05:27:41.913Z,6.30
2023-07-18T05:30:14.322Z,5.20
2023-07-18T05:32:41.570Z,3.70
2023-07-18T05:35:12.369Z,6.32
2023-07-18T05:37:39.637Z,8.35
2023-07-18T05:40:07.161Z,9.32
2023-07-18T05:42:33.588Z,6.38
2023-07-18T05:45:00.032Z,7.10
2023-07-18T05:47:26.667Z,6.38
2023-07-18T05:49:53.320Z,8.88
2023-07-18T05:52:19.770Z,6.90
2023-07-18T05:54:46.242Z,5.38
2023-07-18T05:57:12.774Z,6.82
2023-07-18T05:59:39.253Z,6.45
2023-07-18T06:02:06.299Z,5.45
2023-07-18T06:04:32.944Z,8.15
2023-07-18T06:06:59.395Z,6.60
2023-07-18T06:09:25.991Z,7.80
2023-07-18T06:11:53.764Z,7.07
2023-07-18T06:14:20.818Z,6.05
2023-07-18T06:16:47.549Z,6.28
2023-07-18T06:19:14.938Z,8.48
2023-07-18T06:21:41.382Z,7.25
2023-07-18T06:24:17.875Z,10.52
2023-07-18T06:26:50.034Z,5.85
2023-07-18T06:29:18.665Z,6.55
2023-07-18T06:31:46.002Z,8.38
2023-07-18T06:34:12.514Z,4.28
2023-07-18T06:36:39.084Z,7.65
2023-07-18T06:39:07.074Z,8.60
2023-07-18T06:41:34.488Z,6.70
2023-07-18T06:44:01.032Z,7.95
2023-07-18T06:46:27.523Z,9.25
2023-07-18T06:48:53.980Z,8.75
2023-07-18T06:51:20.650Z,8.38
2023-07-18T06:53:47.351Z,13.35
2023-07-18T06:56:13.832Z,6.13
2023-07-18T06:58:40.436Z,8.45
2023-07-18T07:01:06.947Z,5.50
2023-07-18T07:03:34.036Z,7.00
2023-07-18T07:06:00.605Z,6.10
2023-07-18T07:08:27.163Z,6.43
2023-07-18T07:11:05.402Z,7.57
2023-07-18T07:13:32.566Z,9.18
2023-07-18T07:15:59.140Z,8.25
2023-07-18T07:18:25.615Z,10.15
2023-07-18T07:20:52.193Z,9.32
2023-07-18T07:23:18.668Z,9.50
2023-07-18T07:25:45.160Z,11.02
2023-07-18T07:28:11.655Z,9.85
2023-07-18T07:30:38.135Z,11.13
2023-07-18T07:33:07.480Z,9.15
2023-07-18T07:35:34.376Z,10.85
2023-07-18T07:38:00.792Z,10.07
2023-07-18T07:40:27.313Z,5.93
2023-07-18T07:42:53.809Z,10.90
2023-07-18T07:45:22.165Z,11.15
2023-07-18T07:47:49.915Z,8.32
2023-07-18T07:50:16.480Z,8.00
2023-07-18T07:52:43.293Z,6.75
2023-07-18T07:55:13.776Z,8.38
2023-07-18T07:57:40.879Z,7.82
2023-07-18T08:00:08.341Z,7.72
2023-07-18T08:02:35.373Z,6.78
2023-07-18T08:05:02.050Z,8.38
2023-07-18T08:07:28.617Z,6.90
2023-07-18T08:09:56.027Z,8.40
2023-07-18T08:12:22.604Z,4.72
2023-07-18T08:14:50.170Z,6.22
2023-07-18T08:17:17.995Z,5.30
2023-07-18T08:19:44.802Z,5.93
2023-07-18T08:22:11.248Z,4.60
2023-07-18T08:24:37.781Z,5.25
2023-07-18T08:27:04.572Z,4.20
2023-07-18T08:29:31.415Z,6.38
2023-07-18T08:31:59.556Z,6.68
2023-07-18T08:34:26.678Z,5.15
2023-07-18T08:36:53.259Z,5.25
2023-07-18T08:39:20.009Z,6.85
2023-07-18T08:41:50.341Z,7.40
2023-07-18T08:44:18.064Z,5.05
2023-07-18T08:46:48.244Z,5.82
2023-07-18T08:49:17.712Z,8.68
2023-07-18T08:51:45.684Z,9.13
2023-07-18T08:54:14.035Z,6.65
2023-07-18T08:56:42.502Z,5.47
2023-07-18T08:59:09.417Z,4.07
2023-07-18T09:01:36.396Z,5.35
2023-07-18T09:04:03.352Z,8.55
2023-07-18T09:06:29.918Z,6.57
2023-07-18T09:08:56.367Z,6.05
2023-07-18T09:11:23.174Z,5.03
2023-07-18T09:13:50.217Z,8.23
2023-07-18T09:16:21.894Z,5.90
2023-07-18T09:18:50.822Z,6.90
2023-07-18T09:21:19.121Z,7.55
2023-07-18T09:23:46.553Z,8.77
2023-07-18T09:26:19.209Z,4.55
2023-07-18T09:28:46.972Z,7.93
2023-07-18T09:31:21.170Z,6.70
2023-07-18T09:33:48.996Z,5.00
2023-07-18T09:36:18.832Z,4.57
2023-07-18T09:38:47.609Z,5.72
2023-07-18T09:41:19.030Z,7.00
2023-07-18T09:43:49.024Z,6.55
2023-07-18T09:46:17.413Z,7.22
2023-07-18T09:48:46.521Z,6.57
2023-07-18T09:51:21.732Z,5.68
2023-07-18T09:53:49.616Z,7.82
2023-07-18T09:56:17.885Z,7.72
2023-07-18T09:58:45.995Z,7.05
2023-07-18T10:01:13.716Z,8.35
2023-07-18T10:03:40.786Z,6.35
2023-07-18T10:06:16.079Z,5.40
2023-07-18T10:08:44.288Z,7.95
2023-07-18T10:11:12.784Z,9.32
2023-07-18T10:13:43.353Z,4.35
2023-07-18T10:16:13.004Z,5.95
2023-07-18T10:18:48.014Z,5.10
2023-07-18T10:21:29.873Z,4.15
2023-07-18T10:23:56.869Z,3.88
2023-07-18T10:26:33.152Z,8.25
2023-07-18T10:29:03.073Z,3.22
2023-07-18T10:31:31.570Z,3.17
2023-07-18T10:34:07.348Z,5.43
2023-07-18T10:36:36.189Z,3.13
2023-07-18T10:39:11.018Z,6.43
2023-07-18T10:41:37.845Z,4.57
2023-07-18T10:44:04.593Z,4.90
2023-07-18T10:46:39.756Z,5.18
2023-07-18T10:49:07.265Z,5.80
2023-07-18T10:51:35.115Z,5.00
2023-07-18T10:54:02.213Z,2.97
2023-07-18T10:56:29.125Z,2.90
2023-07-18T10:58:58.406Z,4.18
2023-07-18T11:01:26.640Z,5.63
2023-07-18T11:03:56.656Z,4.20
2023-07-18T11:06:23.742Z,7.00
2023-07-18T11:08:50.240Z,4.88
2023-07-18T11:11:19.657Z,6.90
2023-07-18T11:13:46.648Z,3.90
2023-07-18T11:16:17.055Z,5.13
2023-07-18T11:18:46.088Z,6.20
2023-07-18T11:21:14.570Z,3.50
2023-07-18T11:23:42.700Z,5.82
2023-07-18T11:26:13.686Z,4.65
2023-07-18T11:28:44.987Z,7.20
2023-07-18T11:31:40.352Z,6.32
2023-07-18T11:34:10.114Z,3.45
2023-07-18T11:36:37.997Z,4.43
2023-07-18T11:39:18.188Z,8.80
2023-07-18T11:41:46.509Z,7.18
2023-07-18T11:44:23.659Z,7.93
2023-07-18T11:46:50.164Z,7.30
2023-07-18T11:49:17.352Z,4.72
2023-07-18T11:51:44.238Z,4.88
2023-07-18T11:54:10.813Z,6.07
2023-07-18T11:56:38.188Z,4.78
2023-07-18T11:59:04.856Z,4.97
2023-07-18T12:01:38.253Z,5.88
2023-07-18T12:04:12.583Z,4.53
2023-07-18T12:06:40.108Z,3.65
2023-07-18T12:09:06.493Z,4.82
2023-07-18T12:11:32.996Z,3.72
2023-07-18T12:14:01.070Z,4.25
2023-07-18T12:16:27.591Z,4.82
2023-07-18T12:18:53.981Z,4.80
2023-07-18T12:21:20.892Z,4.80
2023-07-18T12:23:47.744Z,4.82
2023-07-18T12:26:14.124Z,4.25
2023-07-18T12:28:40.675Z,3.90
2023-07-18T12:31:08.614Z,5.70
2023-07-18T12:33:35.392Z,4.93
2023-07-18T12:36:01.892Z,6.35
2023-07-18T12:38:30.156Z,6.53
2023-07-18T12:40:56.762Z,4.57
2023-07-18T12:43:23.334Z,2.78
2023-07-18T12:45:49.925Z,3.67
2023-07-18T12:48:17.275Z,4.10
2023-07-18T12:50:44.336Z,4.35
2023-07-18T12:53:10.760Z,4.90
2023-07-18T12:55:37.206Z,4.25
2023-07-18T12:58:03.674Z,2.45
2023-07-18T13:00:30.225Z,4.28
2023-07-18T13:02:57.092Z,3.05
2023-07-18T13:05:23.859Z,3.17
2023-07-18T13:07:50.329Z,5.93
2023-07-18T13:10:16.829Z,5.50
2023-07-18T13:12:43.385Z,3.92
2023-07-18T13:15:09.941Z,6.15
2023-07-18T13:17:36.362Z,3.58
2023-07-18T13:20:02.937Z,3.08
2023-07-18T13:22:29.337Z,4.07
2023-07-18T13:24:55.852Z,3.95
2023-07-18T13:27:22.334Z,6.38
2023-07-18T13:29:48.887Z,3.15
2023-07-18T13:32:15.450Z,3.40
2023-07-18T13:34:41.937Z,4.22
2023-07-18T13:37:08.576Z,3.67
2023-07-18T13:39:35.082Z,4.00
2023-07-18T13:42:01.567Z,2.67
2023-07-18T13:44:27.991Z,3.70
2023-07-18T13:46:54.445Z,2.58
2023-07-18T13:49:20.889Z,3.30
2023-07-18T13:51:48.822Z,3.08
2023-07-18T13:54:15.350Z,4.38
2023-07-18T13:56:41.857Z,2.95
2023-07-18T13:59:08.460Z,3.25
2023-07-18T14:01:35.056Z,2.42
2023-07-18T14:04:01.792Z,2.78
2023-07-18T14:06:28.417Z,3.47
2023-07-18T14:08:54.871Z,5.40
2023-07-18T14:11:21.410Z,2.53
2023-07-18T14:13:47.906Z,2.13
2023-07-18T14:16:14.462Z,3.28
2023-07-18T14:18:41.053Z,3.22
2023-07-18T14:21:08.230Z,4.93
2023-07-18T14:23:34.723Z,2.25
2023-07-18T14:26:01.228Z,2.97
2023-07-18T14:28:27.714Z,3.00
2023-07-18T14:30:54.206Z,3.33
2023-07-18T14:33:20.730Z,4.25
2023-07-18T14:35:47.244Z,4.10
2023-07-18T14:38:13.802Z,4.38
2023-07-18T14:40:40.724Z,5.13
2023-07-18T14:43:10.114Z,2.42
2023-07-18T14:45:37.901Z,1.63
2023-07-18T14:48:04.845Z,3.10
2023-07-18T14:50:32.358Z,3.65
2023-07-18T14:52:58.845Z,2.15
2023-07-18T14:55:25.421Z,3.22
2023-07-18T14:57:51.993Z,4.10
2023-07-18T15:00:19.739Z,6.32
2023-07-18T15:02:48.571Z,2.45
2023-07-18T15:05:15.960Z,3.42
2023-07-18T15:07:42.496Z,2.63
2023-07-18T15:10:09.286Z,2.17
2023-07-18T15:12:39.239Z,2.05
2023-07-18T15:15:06.361Z,2.42
2023-07-18T15:17:40.360Z,4.43
2023-07-18T15:20:09.678Z,2.72
2023-07-18T15:22:37.520Z,3.50
2023-07-18T15:25:08.620Z,2.63
2023-07-18T15:27:36.273Z,3.92
2023-07-18T15:30:04.783Z,2.60
2023-07-18T15:32:31.259Z,3.13
2023-07-18T15:34:57.738Z,3.45
2023-07-18T15:37:25.108Z,3.15
2023-07-18T15:39:51.573Z,5.70
2023-07-18T15:42:18.849Z,2.75
2023-07-18T15:44:45.588Z,2.85
2023-07-18T15:47:12.452Z,4.72
2023-07-18T15:49:38.961Z,4.28
2023-07-18T15:52:08.378Z,2.90
2023-07-18T15:54:35.523Z,4.40
2023-07-18T15:57:02.022Z,2.80
2023-07-18T15:59:30.250Z,5.15
2023-07-18T16:01:58.376Z,3.95
2023-07-18T16:04:25.670Z,3.30
2023-07-18T16:06:52.221Z,3.83
2023-07-18T16:09:18.976Z,3.47
2023-07-18T16:11:46.044Z,4.03
2023-07-18T16:14:15.634Z,5.43
2023-07-18T16:16:43.522Z,3.97
2023-07-18T16:19:09.932Z,2.78
2023-07-18T16:21:36.679Z,4.28
2023-07-18T16:24:03.261Z,5.43
2023-07-18T16:26:33.837Z,4.68
2023-07-18T16:29:02.336Z,3.08
2023-07-18T16:31:29.417Z,3.42
2023-07-18T16:33:55.809Z,2.53
2023-07-18T16:36:22.319Z,4.25
2023-07-18T16:38:49.015Z,5.82
2023-07-18T16:41:15.639Z,3.10
2023-07-18T16:43:42.124Z,4.68
2023-07-18T16:46:08.624Z,3.60
2023-07-18T16:48:35.112Z,3.17
2023-07-18T16:51:01.525Z,3.80
2023-07-18T16:53:28.037Z,3.92
2023-07-18T16:55:54.488Z,9.07
2023-07-18T16:58:21.025Z,4.53
2023-07-18T17:00:47.620Z,3.75
2023-07-18T17:03:14.857Z,3.03
2023-07-18T17:05:41.342Z,5.90
2023-07-18T17:08:07.880Z,3.63
2023-07-18T17:10:34.374Z,3.67
2023-07-18T17:13:00.819Z,3.72
2023-07-18T17:15:27.419Z,3.30
2023-07-18T17:17:53.989Z,3.28
2023-07-18T17:20:20.567Z,3.53
2023-07-18T17:22:47.122Z,8.13
2023-07-18T17:25:13.898Z,4.53
2023-07-18T17:27:40.347Z,3.80
2023-07-18T17:30:08.519Z,2.67
2023-07-18T17:32:35.067Z,3.20
2023-07-18T17:35:01.702Z,4.03
2023-07-18T17:37:28.177Z,2.53
2023-07-18T17:42:22.624Z,2.95
2023-07-18T17:44:49.181Z,4.18
2023-07-18T17:47:16.791Z,3.85
2023-07-18T17:49:43.236Z,1.80
2023-07-18T17:52:09.740Z,1.77
2023-07-18T17:54:36.308Z,1.92
2023-07-18T17:57:02.896Z,3.55
2023-07-18T17:59:29.321Z,2.60
2023-07-18T18:01:55.843Z,2.38
2023-07-18T18:04:22.409Z,2.17
2023-07-18T18:06:49.922Z,2.33
2023-07-18T18:09:17.600Z,2.28
2023-07-18T18:11:44.386Z,3.20
2023-07-18T18:14:10.789Z,5.28
2023-07-18T18:16:37.211Z,2.72
2023-07-18T18:19:03.717Z,2.88
2023-07-18T18:21:30.261Z,3.60
2023-07-18T18:23:56.695Z,4.20
2023-07-18T18:26:23.228Z,2.55
2023-07-18T18:28:49.724Z,2.88
2023-07-18T18:31:16.434Z,2.63
2023-07-18T18:33:43.147Z,3.33
2023-07-18T18:36:09.679Z,3.65
2023-07-18T18:38:36.097Z,6.18
2023-07-18T18:41:04.564Z,1.98
2023-07-18T18:43:31.620Z,2.40
2023-07-18T18:45:58.206Z,1.88
2023-07-18T18:48:26.479Z,2.83
2023-07-18T18:50:53.010Z,3.13
2023-07-18T18:53:21.141Z,2.92
2023-07-18T18:55:47.580Z,1.42
2023-07-18T18:58:14.573Z,2.58
2023-07-18T19:00:41.169Z,4.53
2023-07-18T19:03:07.743Z,3.13
2023-07-18T19:05:34.295Z,4.47
2023-07-18T19:08:00.757Z,5.50
2023-07-18T19:10:28.118Z,4.10
2023-07-18T19:12:54.585Z,3.63
2023-07-18T19:15:21.040Z,2.40
2023-07-18T19:17:47.654Z,2.67
2023-07-18T19:20:16.407Z,4.03
2023-07-18T19:22:42.914Z,2.00
2023-07-18T19:25:09.705Z,3.03
2023-07-18T19:27:37.078Z,2.67
2023-07-18T19:30:05.477Z,2.63
2023-07-18T19:32:32.228Z,7.03
2023-07-18T19:34:58.704Z,2.75
2023-07-18T19:37:25.401Z,3.80
2023-07-18T19:39:51.805Z,3.47
2023-07-18T19:42:18.374Z,2.00
2023-07-18T19:44:47.719Z,3.40
2023-07-18T19:47:14.801Z,4.88
2023-07-18T19:49:41.255Z,3.25
2023-07-18T19:52:08.083Z,3.28
2023-07-18T19:54:34.550Z,4.65
2023-07-18T19:57:01.017Z,1.67
2023-07-18T19:59:27.537Z,1.23
2023-07-18T20:01:54.116Z,2.05
2023-07-18T20:04:20.755Z,2.40
2023-07-18T20:06:47.270Z,2.40
2023-07-18T20:09:13.762Z,3.45
2023-07-18T20:11:40.352Z,4.00
2023-07-18T20:14:06.809Z,3.85
2023-07-18T20:16:33.315Z,1.38
2023-07-18T20:19:02.618Z,4.47
2023-07-18T20:21:30.268Z,3.47
2023-07-18T20:23:57.066Z,2.33
2023-07-18T20:26:23.625Z,1.77
2023-07-18T20:28:50.124Z,2.92
2023-07-18T20:31:17.067Z,4.07
2023-07-18T20:33:43.869Z,3.20
2023-07-18T20:36:10.511Z,3.13
2023-07-18T20:38:37.231Z,3.53
2023-07-18T20:41:04.472Z,2.17
2023-07-18T20:43:32.588Z,1.33
2023-07-18T20:46:01.976Z,2.20
2023-07-18T20:48:30.156Z,5.15
2023-07-18T20:50:58.321Z,2.95
2023-07-18T20:53:25.835Z,3.47
2023-07-18T20:55:52.278Z,3.47
2023-07-18T20:58:18.710Z,3.83
2023-07-18T21:00:45.505Z,2.70
2023-07-18T21:03:12.796Z,2.40
2023-07-18T21:05:39.892Z,2.05
2023-07-18T21:08:07.296Z,3.30
2023-07-18T21:10:34.569Z,3.83
2023-07-18T21:13:01.546Z,2.83
2023-07-18T21:15:28.262Z,2.90
2023-07-18T21:17:55.171Z,2.42
2023-07-18T21:20:21.957Z,2.33
2023-07-18T21:22:48.431Z,2.53
2023-07-18T21:25:14.998Z,2.78
2023-07-18T21:27:41.392Z,1.85
2023-07-18T21:30:08.757Z,2.75
2023-07-18T21:32:36.285Z,2.53
2023-07-18T21:35:03.846Z,2.53
2023-07-18T21:37:30.399Z,3.35
2023-07-18T21:39:56.912Z,3.03
2023-07-18T21:42:23.518Z,2.65
2023-07-18T21:44:50.089Z,2.20
2023-07-18T21:47:16.776Z,3.00
2023-07-18T21:49:43.231Z,4.07
2023-07-18T21:52:09.691Z,3.05
2023-07-18T21:54:36.146Z,1.77
2023-07-18T21:57:02.784Z,2.08
2023-07-18T21:59:29.488Z,2.08
2023-07-18T22:01:56.000Z,2.75
2023-07-18T22:04:22.812Z,2.08
2023-07-18T22:06:49.324Z,3.08
2023-07-18T22:09:15.784Z,2.13
2023-07-18T22:11:42.367Z,3.28
2023-07-18T22:14:08.888Z,1.95
2023-07-18T22:16:35.349Z,4.85
2023-07-18T22:19:01.796Z,5.05
2023-07-18T22:21:28.315Z,3.28
2023-07-18T22:23:55.242Z,2.60
2023-07-18T22:26:21.652Z,3.20
2023-07-18T22:28:48.184Z,2.35
2023-07-18T22:31:14.657Z,2.67
2023-07-18T22:33:41.628Z,2.85
2023-07-18T22:36:08.203Z,2.72
2023-07-18T22:38:34.646Z,2.08
2023-07-18T22:41:03.447Z,3.25
2023-07-18T22:43:30.416Z,2.20
2023-07-18T22:45:56.915Z,2.00
2023-07-18T22:48:23.315Z,2.80
2023-07-18T22:50:53.107Z,2.05
2023-07-18T22:53:20.026Z,2.90
2023-07-18T22:55:50.225Z,2.80
2023-07-18T22:58:17.720Z,3.60
2023-07-18T23:00:44.461Z,2.55
2023-07-18T23:03:11.032Z,1.90
2023-07-18T23:05:37.615Z,2.13
2023-07-18T23:08:05.544Z,3.40
2023-07-18T23:10:33.044Z,3.20
2023-07-18T23:12:59.886Z,3.10
2023-07-18T23:15:27.015Z,3.30
2023-07-18T23:17:53.674Z,3.28
2023-07-18T23:20:20.213Z,2.78
2023-07-18T23:22:47.140Z,2.80
2023-07-18T23:25:13.686Z,4.45
2023-07-18T23:27:40.205Z,4.40
2023-07-18T23:30:07.649Z,3.03
2023-07-18T23:32:34.323Z,5.07
2023-07-18T23:35:00.912Z,4.47
2023-07-18T23:37:27.483Z,3.28
2023-07-18T23:39:54.019Z,3.83
2023-07-18T23:42:20.546Z,2.45
2023-07-18T23:44:47.044Z,6.60
2023-07-18T23:47:13.525Z,2.08
2023-07-18T23:49:40.343Z,2.92
2023-07-18T23:52:07.167Z,3.65
2023-07-18T23:54:33.638Z,3.13
2023-07-18T23:57:00.104Z,4.18
2023-07-18T23:59:26.503Z,5.30
